sensor_id;sensor_type;location;lat;lon;timestamp;pressure;altitude;pressure_sealevel;temperature;humidity
75383;BME280;77049;52.132;5.426;2024-03-23T00:54:02;101042.63;;;8.06;100.00
75383;BME280;77049;52.132;5.426;2024-03-23T00:56:29;101039.63;;;8.04;100.00
75383;BME280;77049;52.132;5.426;2024-03-23T00:58:54;101035.50;;;8.03;100.00
75383;BME280;77049;52.132;5.426;2024-03-23T01:01:20;101038.47;;;8.05;100.00
75383;BME280;77049;52.132;5.426;2024-03-23T01:03:49;101041.19;;;8.01;100.00
75383;BME280;77049;52.132;5.426;2024-03-23T01:06:14;101041.19;;;8.01;100.00
75383;BME280;77049;52.132;5.426;2024-03-23T01:08:40;101033.09;;;7.92;100.00
75383;BME280;77049;52.132;5.426;2024-03-23T01:11:06;101038.81;;;7.91;100.00
75383;BME280;77049;52.132;5.426;2024-03-23T01:13:31;101028.53;;;7.93;100.00
75383;BME280;77049;52.132;5.426;2024-03-23T01:15:57;101020.50;;;7.96;100.00
75383;BME280;77049;52.132;5.426;2024-03-23T01:18:23;101028.88;;;7.95;100.00
75383;BME280;77049;52.132;5.426;2024-03-23T01:20:49;101016.78;;;7.94;100.00
75383;BME280;77049;52.132;5.426;2024-03-23T01:23:15;101019.78;;;7.96;100.00
75383;BME280;77049;52.132;5.426;2024-03-23T01:25:40;101014.88;;;7.94;100.00
75383;BME280;77049;52.132;5.426;2024-03-23T01:28:07;101010.81;;;7.90;100.00
75383;BME280;77049;52.132;5.426;2024-03-23T01:30:33;101004.75;;;7.89;100.00
75383;BME280;77049;52.132;5.426;2024-03-23T01:32:59;101001.38;;;7.89;100.00
75383;BME280;77049;52.132;5.426;2024-03-23T01:35:25;101001.69;;;7.91;100.00
75383;BME280;77049;52.132;5.426;2024-03-23T01:37:50;100994.84;;;7.93;100.00
75383;BME280;77049;52.132;5.426;2024-03-23T01:40:16;100994.09;;;7.93;100.00
75383;BME280;77049;52.132;5.426;2024-03-23T01:42:42;100983.91;;;7.91;100.00
75383;BME280;77049;52.132;5.426;2024-03-23T01:45:09;100978.25;;;7.89;100.00
75383;BME280;77049;52.132;5.426;2024-03-23T01:47:35;100975.69;;;7.86;100.00
75383;BME280;77049;52.132;5.426;2024-03-23T01:50:01;100973.69;;;7.90;100.00
75383;BME280;77049;52.132;5.426;2024-03-23T01:52:27;100971.81;;;7.90;100.00
75383;BME280;77049;52.132;5.426;2024-03-23T01:54:53;100969.16;;;7.90;100.00
75383;BME280;77049;52.132;5.426;2024-03-23T01:57:19;100962.09;;;7.84;100.00
75383;BME280;77049;52.132;5.426;2024-03-23T01:59:48;100969.06;;;7.78;100.00
75383;BME280;77049;52.132;5.426;2024-03-23T02:02:23;100969.56;;;7.73;100.00
75383;BME280;77049;52.132;5.426;2024-03-23T02:04:49;100959.38;;;7.71;100.00
75383;BME280;77049;52.132;5.426;2024-03-23T02:07:14;100965.00;;;7.73;100.00
75383;BME280;77049;52.132;5.426;2024-03-23T02:09:40;100960.94;;;7.68;100.00
75383;BME280;77049;52.132;5.426;2024-03-23T02:12:06;100961.84;;;7.62;100.00
75383;BME280;77049;52.132;5.426;2024-03-23T02:14:32;100966.38;;;7.61;100.00
75383;BME280;77049;52.132;5.426;2024-03-23T02:16:58;100969.88;;;7.58;100.00
75383;BME280;77049;52.132;5.426;2024-03-23T02:19:24;100965.81;;;7.54;100.00
75383;BME280;77049;52.132;5.426;2024-03-23T02:21:49;100963.25;;;7.50;100.00
75383;BME280;77049;52.132;5.426;2024-03-23T02:24:15;100968.97;;;7.49;100.00
75383;BME280;77049;52.132;5.426;2024-03-23T02:26:41;100962.91;;;7.48;100.00
75383;BME280;77049;52.132;5.426;2024-03-23T02:29:06;100962.25;;;7.44;100.00
75383;BME280;77049;52.132;5.426;2024-03-23T02:31:32;100961.91;;;7.42;100.00
75383;BME280;77049;52.132;5.426;2024-03-23T02:33:57;100946.84;;;7.39;100.00
75383;BME280;77049;52.132;5.426;2024-03-23T02:36:23;100942.38;;;7.36;100.00
75383;BME280;77049;52.132;5.426;2024-03-23T02:38:49;100945.91;;;7.29;100.00
75383;BME280;77049;52.132;5.426;2024-03-23T02:41:14;100942.84;;;7.31;100.00
75383;BME280;77049;52.132;5.426;2024-03-23T02:43:41;100947.41;;;7.30;100.00
75383;BME280;77049;52.132;5.426;2024-03-23T02:46:06;100948.63;;;7.26;100.00
75383;BME280;77049;52.132;5.426;2024-03-23T02:48:32;100947.06;;;7.28;100.00
75383;BME280;77049;52.132;5.426;2024-03-23T02:50:58;100941.78;;;7.28;100.00
75383;BME280;77049;52.132;5.426;2024-03-23T02:53:24;100948.56;;;7.29;100.00
75383;BME280;77049;52.132;5.426;2024-03-23T02:55:50;100947.88;;;7.25;100.00
75383;BME280;77049;52.132;5.426;2024-03-23T02:58:15;100943.50;;;7.19;100.00
75383;BME280;77049;52.132;5.426;2024-03-23T03:00:41;100946.63;;;7.14;100.00
75383;BME280;77049;52.132;5.426;2024-03-23T03:03:06;100940.34;;;7.08;100.00
75383;BME280;77049;52.132;5.426;2024-03-23T03:05:32;100944.53;;;7.05;100.00
75383;BME280;77049;52.132;5.426;2024-03-23T03:07:58;100948.00;;;7.02;100.00
75383;BME280;77049;52.132;5.426;2024-03-23T03:10:24;100944.22;;;7.03;100.00
75383;BME280;77049;52.132;5.426;2024-03-23T03:12:49;100946.78;;;7.07;100.00
75383;BME280;77049;52.132;5.426;2024-03-23T03:15:15;100940.06;;;7.02;100.00
75383;BME280;77049;52.132;5.426;2024-03-23T03:17:41;100942.09;;;6.94;100.00
75383;BME280;77049;52.132;5.426;2024-03-23T03:20:07;100948.06;;;6.98;100.00
75383;BME280;77049;52.132;5.426;2024-03-23T03:22:32;100943.53;;;6.99;100.00
75383;BME280;77049;52.132;5.426;2024-03-23T03:24:58;100946.25;;;6.95;100.00
75383;BME280;77049;52.132;5.426;2024-03-23T03:27:25;100947.81;;;6.93;100.00
75383;BME280;77049;52.132;5.426;2024-03-23T03:29:51;100941.50;;;6.87;100.00
75383;BME280;77049;52.132;5.426;2024-03-23T03:32:16;100938.50;;;6.85;100.00
75383;BME280;77049;52.132;5.426;2024-03-23T03:34:42;100935.13;;;6.84;100.00
75383;BME280;77049;52.132;5.426;2024-03-23T03:37:07;100933.72;;;6.80;100.00
75383;BME280;77049;52.132;5.426;2024-03-23T03:39:33;100927.00;;;6.75;100.00
75383;BME280;77049;52.132;5.426;2024-03-23T03:41:59;100930.47;;;6.72;100.00
75383;BME280;77049;52.132;5.426;2024-03-23T03:44:26;100925.25;;;6.68;100.00
75383;BME280;77049;52.132;5.426;2024-03-23T03:46:51;100922.66;;;6.65;100.00
75383;BME280;77049;52.132;5.426;2024-03-23T03:49:17;100921.97;;;6.61;100.00
75383;BME280;77049;52.132;5.426;2024-03-23T03:51:42;100914.84;;;6.58;100.00
75383;BME280;77049;52.132;5.426;2024-03-23T03:54:08;100913.34;;;6.57;100.00
75383;BME280;77049;52.132;5.426;2024-03-23T03:56:34;100907.66;;;6.58;100.00
75383;BME280;77049;52.132;5.426;2024-03-23T03:58:59;100911.13;;;6.55;100.00
75383;BME280;77049;52.132;5.426;2024-03-23T04:01:25;100918.31;;;6.55;100.00
75383;BME280;77049;52.132;5.426;2024-03-23T04:03:50;100905.91;;;6.52;100.00
75383;BME280;77049;52.132;5.426;2024-03-23T04:06:19;100914.66;;;6.49;100.00
75383;BME280;77049;52.132;5.426;2024-03-23T04:08:45;100911.72;;;6.43;100.00
75383;BME280;77049;52.132;5.426;2024-03-23T04:11:11;100907.59;;;6.42;100.00
75383;BME280;77049;52.132;5.426;2024-03-23T04:13:36;100906.09;;;6.41;100.00
75383;BME280;77049;52.132;5.426;2024-03-23T04:16:02;100900.50;;;6.39;100.00
75383;BME280;77049;52.132;5.426;2024-03-23T04:18:28;100898.66;;;6.36;100.00
75383;BME280;77049;52.132;5.426;2024-03-23T04:20:54;100904.69;;;6.37;100.00
75383;BME280;77049;52.132;5.426;2024-03-23T04:23:19;100894.19;;;6.33;100.00
75383;BME280;77049;52.132;5.426;2024-03-23T04:25:46;100903.31;;;6.28;100.00
75383;BME280;77049;52.132;5.426;2024-03-23T04:28:12;100893.16;;;6.27;100.00
75383;BME280;77049;52.132;5.426;2024-03-23T04:30:37;100894.25;;;6.29;100.00
75383;BME280;77049;52.132;5.426;2024-03-23T04:33:03;100889.34;;;6.28;100.00
75383;BME280;77049;52.132;5.426;2024-03-23T04:35:30;100901.09;;;6.27;100.00
75383;BME280;77049;52.132;5.426;2024-03-23T04:37:56;100894.75;;;6.21;100.00
75383;BME280;77049;52.132;5.426;2024-03-23T04:40:24;100895.56;;;6.18;100.00
75383;BME280;77049;52.132;5.426;2024-03-23T04:42:50;100893.75;;;6.15;100.00
75383;BME280;77049;52.132;5.426;2024-03-23T04:45:15;100892.31;;;6.10;100.00
75383;BME280;77049;52.132;5.426;2024-03-23T04:47:41;100904.38;;;6.11;100.00
75383;BME280;77049;52.132;5.426;2024-03-23T04:50:07;100903.97;;;6.13;100.00
75383;BME280;77049;52.132;5.426;2024-03-23T04:52:33;100899.53;;;6.06;100.00
75383;BME280;77049;52.132;5.426;2024-03-23T04:54:59;100895.41;;;6.05;100.00
75383;BME280;77049;52.132;5.426;2024-03-23T04:57:24;100890.06;;;6.09;100.00
75383;BME280;77049;52.132;5.426;2024-03-23T04:59:50;100891.50;;;6.13;100.00
75383;BME280;77049;52.132;5.426;2024-03-23T05:02:15;100886.28;;;6.10;100.00
75383;BME280;77049;52.132;5.426;2024-03-23T05:04:41;100891.22;;;6.08;100.00
75383;BME280;77049;52.132;5.426;2024-03-23T05:07:07;100890.53;;;6.03;100.00
75383;BME280;77049;52.132;5.426;2024-03-23T05:09:33;100888.78;;;5.97;100.00
75383;BME280;77049;52.132;5.426;2024-03-23T05:11:59;100891.41;;;5.97;100.00
75383;BME280;77049;52.132;5.426;2024-03-23T05:14:28;100895.31;;;5.89;100.00
75383;BME280;77049;52.132;5.426;2024-03-23T05:16:54;100894.19;;;5.90;100.00
75383;BME280;77049;52.132;5.426;2024-03-23T05:19:20;100890.06;;;5.85;100.00
75383;BME280;77049;52.132;5.426;2024-03-23T05:21:45;100896.44;;;5.88;100.00
75383;BME280;77049;52.132;5.426;2024-03-23T05:24:11;100897.97;;;5.89;100.00
75383;BME280;77049;52.132;5.426;2024-03-23T05:26:37;100894.94;;;5.87;99.81
75383;BME280;77049;52.132;5.426;2024-03-23T05:29:03;100894.59;;;5.85;99.90
75383;BME280;77049;52.132;5.426;2024-03-23T05:31:31;100897.34;;;5.78;99.61
75383;BME280;77049;52.132;5.426;2024-03-23T05:33:57;100899.25;;;5.77;99.56
75383;BME280;77049;52.132;5.426;2024-03-23T05:36:23;100899.94;;;5.81;99.49
75383;BME280;77049;52.132;5.426;2024-03-23T05:38:51;100903.34;;;5.82;99.39
75383;BME280;77049;52.132;5.426;2024-03-23T05:41:17;100902.59;;;5.81;99.22
75383;BME280;77049;52.132;5.426;2024-03-23T05:43:42;100896.22;;;5.79;99.38
75383;BME280;77049;52.132;5.426;2024-03-23T05:46:08;100895.06;;;5.80;99.45
75383;BME280;77049;52.132;5.426;2024-03-23T05:48:34;100898.78;;;5.82;99.25
75383;BME280;77049;52.132;5.426;2024-03-23T05:51:00;100897.66;;;5.83;99.40
75383;BME280;77049;52.132;5.426;2024-03-23T05:53:26;100898.00;;;5.85;99.40
75383;BME280;77049;52.132;5.426;2024-03-23T05:56:00;100890.47;;;5.84;99.07
75383;BME280;77049;52.132;5.426;2024-03-23T05:58:29;100883.63;;;5.86;99.77
75383;BME280;77049;52.132;5.426;2024-03-23T06:00:59;100889.72;;;5.83;99.40
75383;BME280;77049;52.132;5.426;2024-03-23T06:03:25;100879.97;;;5.80;99.25
75383;BME280;77049;52.132;5.426;2024-03-23T06:05:52;100887.53;;;5.78;99.52
75383;BME280;77049;52.132;5.426;2024-03-23T06:08:18;100883.75;;;5.79;99.51
75383;BME280;77049;52.132;5.426;2024-03-23T06:10:45;100896.91;;;5.83;99.74
75383;BME280;77049;52.132;5.426;2024-03-23T06:13:12;100886.72;;;5.81;99.05
75383;BME280;77049;52.132;5.426;2024-03-23T06:15:37;100890.53;;;5.80;98.99
75383;BME280;77049;52.132;5.426;2024-03-23T06:18:04;100895.06;;;5.80;98.87
75383;BME280;77049;52.132;5.426;2024-03-23T06:20:30;100896.56;;;5.81;98.87
75383;BME280;77049;52.132;5.426;2024-03-23T06:22:56;100892.38;;;5.83;98.82
75383;BME280;77049;52.132;5.426;2024-03-23T06:25:21;100893.84;;;5.84;98.64
75383;BME280;77049;52.132;5.426;2024-03-23T06:27:47;100893.50;;;5.82;98.50
75383;BME280;77049;52.132;5.426;2024-03-23T06:30:13;100879.97;;;5.80;98.58
75383;BME280;77049;52.132;5.426;2024-03-23T06:32:39;100881.75;;;5.87;98.34
75383;BME280;77049;52.132;5.426;2024-03-23T06:35:05;100882.50;;;5.87;97.95
75383;BME280;77049;52.132;5.426;2024-03-23T06:37:35;100871.53;;;5.89;98.02
75383;BME280;77049;52.132;5.426;2024-03-23T06:40:00;100871.91;;;5.87;98.21
75383;BME280;77049;52.132;5.426;2024-03-23T06:42:26;100874.47;;;5.94;98.08
75383;BME280;77049;52.132;5.426;2024-03-23T06:44:52;100876.72;;;5.96;97.91
75383;BME280;77049;52.132;5.426;2024-03-23T06:47:17;100878.25;;;5.93;97.95
75383;BME280;77049;52.132;5.426;2024-03-23T06:49:43;100870.28;;;5.97;98.57
75383;BME280;77049;52.132;5.426;2024-03-23T06:52:08;100870.06;;;6.08;98.52
75383;BME280;77049;52.132;5.426;2024-03-23T06:54:34;100867.72;;;6.13;98.67
75383;BME280;77049;52.132;5.426;2024-03-23T06:57:00;100872.88;;;6.20;98.20
75383;BME280;77049;52.132;5.426;2024-03-23T06:59:26;100875.84;;;6.22;98.28
75383;BME280;77049;52.132;5.426;2024-03-23T07:01:51;100875.38;;;6.27;98.14
75383;BME280;77049;52.132;5.426;2024-03-23T07:04:17;100871.88;;;6.34;97.66
75383;BME280;77049;52.132;5.426;2024-03-23T07:06:44;100881.97;;;6.39;97.28
75383;BME280;77049;52.132;5.426;2024-03-23T07:09:10;100886.38;;;6.46;97.22
75383;BME280;77049;52.132;5.426;2024-03-23T07:11:36;100879.09;;;6.50;97.47
75383;BME280;77049;52.132;5.426;2024-03-23T07:14:02;100880.13;;;6.56;97.28
75383;BME280;77049;52.132;5.426;2024-03-23T07:16:28;100880.06;;;6.59;97.08
75383;BME280;77049;52.132;5.426;2024-03-23T07:18:54;100882.91;;;6.68;97.17
75383;BME280;77049;52.132;5.426;2024-03-23T07:21:21;100877.47;;;6.76;96.91
75383;BME280;77049;52.132;5.426;2024-03-23T07:23:46;100871.69;;;6.81;96.57
75383;BME280;77049;52.132;5.426;2024-03-23T07:26:12;100878.06;;;6.83;95.86
75383;BME280;77049;52.132;5.426;2024-03-23T07:28:38;100884.09;;;6.84;95.99
75383;BME280;77049;52.132;5.426;2024-03-23T07:31:10;100883.88;;;6.94;95.92
75383;BME280;77049;52.132;5.426;2024-03-23T07:33:37;100886.91;;;7.13;95.90
75383;BME280;77049;52.132;5.426;2024-03-23T07:36:06;100886.94;;;7.45;94.68
75383;BME280;77049;52.132;5.426;2024-03-23T07:38:31;100886.16;;;7.93;94.70
75383;BME280;77049;52.132;5.426;2024-03-23T07:41:19;100880.66;;;8.58;92.63
75383;BME280;77049;52.132;5.426;2024-03-23T07:43:45;100881.81;;;8.57;89.88
75383;BME280;77049;52.132;5.426;2024-03-23T07:46:12;100879.66;;;8.40;88.33
75383;BME280;77049;52.132;5.426;2024-03-23T07:48:38;100884.19;;;8.10;87.97
75383;BME280;77049;52.132;5.426;2024-03-23T07:51:16;100886.22;;;7.90;87.70
75383;BME280;77049;52.132;5.426;2024-03-23T07:53:44;100877.50;;;8.76;87.44
75383;BME280;77049;52.132;5.426;2024-03-23T07:56:12;100876.44;;;9.37;85.15
75383;BME280;77049;52.132;5.426;2024-03-23T07:58:38;100891.03;;;9.80;81.35
75383;BME280;77049;52.132;5.426;2024-03-23T08:01:06;100891.31;;;9.94;79.62
75383;BME280;77049;52.132;5.426;2024-03-23T08:03:39;100880.84;;;10.00;80.56
75383;BME280;77049;52.132;5.426;2024-03-23T08:08:41;100882.63;;;9.68;78.04
75383;BME280;77049;52.132;5.426;2024-03-23T08:11:07;100878.78;;;9.82;77.76
75383;BME280;77049;52.132;5.426;2024-03-23T08:13:34;100881.31;;;9.86;77.49
75383;BME280;77049;52.132;5.426;2024-03-23T08:16:01;100880.16;;;10.09;78.18
75383;BME280;77049;52.132;5.426;2024-03-23T08:18:27;100875.97;;;9.98;74.63
75383;BME280;77049;52.132;5.426;2024-03-23T08:21:03;100880.22;;;9.61;73.76
75383;BME280;77049;52.132;5.426;2024-03-23T08:23:30;100873.66;;;9.53;74.19
75383;BME280;77049;52.132;5.426;2024-03-23T08:25:58;100881.22;;;9.29;74.61
75383;BME280;77049;52.132;5.426;2024-03-23T08:28:25;100882.84;;;9.14;77.06
75383;BME280;77049;52.132;5.426;2024-03-23T08:30:52;100880.59;;;9.13;76.85
75383;BME280;77049;52.132;5.426;2024-03-23T08:33:19;100888.25;;;9.11;76.96
75383;BME280;77049;52.132;5.426;2024-03-23T08:35:59;100882.59;;;9.47;77.49
75383;BME280;77049;52.132;5.426;2024-03-23T08:38:26;100887.41;;;9.74;74.23
75383;BME280;77049;52.132;5.426;2024-03-23T08:41:02;100883.34;;;9.47;75.53
75383;BME280;77049;52.132;5.426;2024-03-23T08:43:29;100881.03;;;9.11;74.94
75383;BME280;77049;52.132;5.426;2024-03-23T08:46:09;100881.88;;;8.95;75.22
75383;BME280;77049;52.132;5.426;2024-03-23T08:48:37;100883.47;;;9.06;75.66
75383;BME280;77049;52.132;5.426;2024-03-23T08:51:08;100883.91;;;9.04;75.54
75383;BME280;77049;52.132;5.426;2024-03-23T08:53:35;100874.00;;;8.79;76.27
75383;BME280;77049;52.132;5.426;2024-03-23T08:56:01;100881.22;;;8.79;78.46
75383;BME280;77049;52.132;5.426;2024-03-23T08:58:28;100883.69;;;8.98;79.60
75383;BME280;77049;52.132;5.426;2024-03-23T09:00:56;100881.75;;;9.37;77.29
75383;BME280;77049;52.132;5.426;2024-03-23T09:03:25;100884.63;;;9.30;76.60
75383;BME280;77049;52.132;5.426;2024-03-23T09:05:52;100866.78;;;9.05;75.45
75383;BME280;77049;52.132;5.426;2024-03-23T09:08:18;100869.75;;;8.82;75.37
75383;BME280;77049;52.132;5.426;2024-03-23T09:10:44;100863.03;;;8.64;75.82
75383;BME280;77049;52.132;5.426;2024-03-23T09:13:11;100868.88;;;8.59;76.20
75383;BME280;77049;52.132;5.426;2024-03-23T09:15:45;100874.84;;;8.89;76.47
75383;BME280;77049;52.132;5.426;2024-03-23T09:18:10;100871.16;;;9.12;75.66
75383;BME280;77049;52.132;5.426;2024-03-23T09:20:36;100876.66;;;8.92;75.23
75383;BME280;77049;52.132;5.426;2024-03-23T09:23:02;100877.06;;;8.65;76.06
75383;BME280;77049;52.132;5.426;2024-03-23T09:25:27;100883.16;;;8.37;77.04
75383;BME280;77049;52.132;5.426;2024-03-23T09:27:53;100879.22;;;8.12;77.99
75383;BME280;77049;52.132;5.426;2024-03-23T09:30:19;100869.28;;;8.00;78.32
75383;BME280;77049;52.132;5.426;2024-03-23T09:32:45;100870.16;;;7.97;79.64
75383;BME280;77049;52.132;5.426;2024-03-23T09:35:11;100869.19;;;8.03;80.59
75383;BME280;77049;52.132;5.426;2024-03-23T09:37:40;100864.00;;;8.00;81.08
75383;BME280;77049;52.132;5.426;2024-03-23T09:40:15;100877.16;;;8.03;81.52
75383;BME280;77049;52.132;5.426;2024-03-23T09:42:41;100868.66;;;7.96;81.66
75383;BME280;77049;52.132;5.426;2024-03-23T09:45:17;100874.91;;;8.02;81.47
75383;BME280;77049;52.132;5.426;2024-03-23T09:47:43;100885.06;;;7.91;81.88
75383;BME280;77049;52.132;5.426;2024-03-23T09:50:09;100889.56;;;7.61;80.85
75383;BME280;77049;52.132;5.426;2024-03-23T09:52:35;100873.44;;;7.40;81.25
75383;BME280;77049;52.132;5.426;2024-03-23T09:55:01;100862.84;;;7.40;82.44
75383;BME280;77049;52.132;5.426;2024-03-23T09:57:27;100865.84;;;7.87;83.53
75383;BME280;77049;52.132;5.426;2024-03-23T09:59:52;100859.44;;;8.58;82.41
75383;BME280;77049;52.132;5.426;2024-03-23T10:02:21;100863.16;;;9.24;82.30
75383;BME280;77049;52.132;5.426;2024-03-23T10:04:46;100867.34;;;9.60;81.15
75383;BME280;77049;52.132;5.426;2024-03-23T10:07:18;100856.22;;;9.87;79.49
75383;BME280;77049;52.132;5.426;2024-03-23T10:09:44;100854.59;;;10.24;79.07
75383;BME280;77049;52.132;5.426;2024-03-23T10:12:16;100854.25;;;10.44;77.53
75383;BME280;77049;52.132;5.426;2024-03-23T10:14:42;100854.47;;;10.89;77.26
75383;BME280;77049;52.132;5.426;2024-03-23T10:17:28;100845.09;;;11.07;77.20
75383;BME280;77049;52.132;5.426;2024-03-23T10:19:56;100860.75;;;11.05;74.19
75383;BME280;77049;52.132;5.426;2024-03-23T10:22:25;100853.31;;;10.90;71.40
75383;BME280;77049;52.132;5.426;2024-03-23T10:24:51;100853.25;;;10.72;72.61
75383;BME280;77049;52.132;5.426;2024-03-23T10:27:21;100856.78;;;10.47;71.27
75383;BME280;77049;52.132;5.426;2024-03-23T10:29:50;100860.19;;;10.48;70.87
75383;BME280;77049;52.132;5.426;2024-03-23T10:32:19;100851.56;;;10.65;69.18
75383;BME280;77049;52.132;5.426;2024-03-23T10:34:45;100862.81;;;11.00;70.47
75383;BME280;77049;52.132;5.426;2024-03-23T10:37:10;100847.47;;;11.23;70.36
75383;BME280;77049;52.132;5.426;2024-03-23T10:39:41;100839.81;;;11.43;67.30
75383;BME280;77049;52.132;5.426;2024-03-23T10:42:09;100842.50;;;11.43;67.72
75383;BME280;77049;52.132;5.426;2024-03-23T10:44:39;100851.84;;;11.48;67.62
75383;BME280;77049;52.132;5.426;2024-03-23T10:47:05;100837.31;;;11.49;66.05
75383;BME280;77049;52.132;5.426;2024-03-23T10:49:35;100848.47;;;11.07;65.77
75383;BME280;77049;52.132;5.426;2024-03-23T10:52:04;100850.00;;;10.77;67.78
75383;BME280;77049;52.132;5.426;2024-03-23T10:54:31;100860.75;;;10.43;67.08
75383;BME280;77049;52.132;5.426;2024-03-23T10:59:25;100871.75;;;9.54;73.36
75383;BME280;77049;52.132;5.426;2024-03-23T11:01:58;100870.59;;;9.42;75.22
75383;BME280;77049;52.132;5.426;2024-03-23T11:04:36;100860.69;;;9.43;76.75
75383;BME280;77049;52.132;5.426;2024-03-23T11:09:53;100856.88;;;9.78;76.09
75383;BME280;77049;52.132;5.426;2024-03-23T11:18:05;100849.66;;;10.66;75.07
75383;BME280;77049;52.132;5.426;2024-03-23T11:20:36;100848.34;;;10.71;74.71
75383;BME280;77049;52.132;5.426;2024-03-23T11:23:02;100846.59;;;10.46;72.95
75383;BME280;77049;52.132;5.426;2024-03-23T11:25:28;100831.16;;;10.31;75.38
75383;BME280;77049;52.132;5.426;2024-03-23T11:27:56;100853.38;;;10.03;73.84
75383;BME280;77049;52.132;5.426;2024-03-23T11:30:28;100848.47;;;9.80;73.23
75383;BME280;77049;52.132;5.426;2024-03-23T11:32:57;100850.44;;;9.66;72.08
75383;BME280;77049;52.132;5.426;2024-03-23T11:35:30;100837.53;;;9.78;71.01
75383;BME280;77049;52.132;5.426;2024-03-23T11:38:17;100839.47;;;9.99;69.32
75383;BME280;77049;52.132;5.426;2024-03-23T11:40:49;100832.97;;;10.00;68.92
75383;BME280;77049;52.132;5.426;2024-03-23T11:43:17;100838.16;;;10.03;68.64
75383;BME280;77049;52.132;5.426;2024-03-23T11:45:45;100832.78;;;10.16;68.90
75383;BME280;77049;52.132;5.426;2024-03-23T11:48:16;100838.19;;;10.25;67.31
75383;BME280;77049;52.132;5.426;2024-03-23T11:50:47;100825.66;;;10.26;65.45
75383;BME280;77049;52.132;5.426;2024-03-23T11:56:02;100819.56;;;10.25;63.11
75383;BME280;77049;52.132;5.426;2024-03-23T11:58:27;100818.75;;;9.94;61.77
75383;BME280;77049;52.132;5.426;2024-03-23T12:01:02;100821.06;;;9.70;62.83
75383;BME280;77049;52.132;5.426;2024-03-23T12:03:29;100824.09;;;9.59;63.92
75383;BME280;77049;52.132;5.426;2024-03-23T12:05:56;100821.25;;;9.54;64.15
75383;BME280;77049;52.132;5.426;2024-03-23T12:13:39;100810.72;;;9.50;65.38
75383;BME280;77049;52.132;5.426;2024-03-23T12:16:17;100821.28;;;9.41;64.08
75383;BME280;77049;52.132;5.426;2024-03-23T12:18:44;100815.13;;;9.31;64.87
75383;BME280;77049;52.132;5.426;2024-03-23T12:21:10;100815.97;;;9.28;65.92
75383;BME280;77049;52.132;5.426;2024-03-23T12:23:39;100810.41;;;9.48;66.05
75383;BME280;77049;52.132;5.426;2024-03-23T12:26:05;100801.59;;;9.73;66.04
75383;BME280;77049;52.132;5.426;2024-03-23T12:28:32;100792.91;;;9.94;66.94
75383;BME280;77049;52.132;5.426;2024-03-23T12:30:58;100786.94;;;10.12;66.31
75383;BME280;77049;52.132;5.426;2024-03-23T12:33:23;100797.22;;;10.01;62.91
75383;BME280;77049;52.132;5.426;2024-03-23T12:35:52;100792.72;;;9.89;63.14
75383;BME280;77049;52.132;5.426;2024-03-23T12:38:19;100786.34;;;9.86;63.44
75383;BME280;77049;52.132;5.426;2024-03-23T12:40:49;100796.13;;;9.89;62.44
75383;BME280;77049;52.132;5.426;2024-03-23T12:43:15;100791.00;;;9.95;62.42
75383;BME280;77049;52.132;5.426;2024-03-23T12:45:41;100789.69;;;9.99;62.04
75383;BME280;77049;52.132;5.426;2024-03-23T12:48:07;100786.63;;;10.10;61.68
75383;BME280;77049;52.132;5.426;2024-03-23T12:50:32;100786.28;;;10.21;61.57
75383;BME280;77049;52.132;5.426;2024-03-23T12:52:58;100790.34;;;10.13;62.15
75383;BME280;77049;52.132;5.426;2024-03-23T12:55:24;100798.69;;;10.02;61.11
75383;BME280;77049;52.132;5.426;2024-03-23T12:57:49;100783.75;;;9.95;62.59
75383;BME280;77049;52.132;5.426;2024-03-23T13:00:15;100783.66;;;10.08;64.38
75383;BME280;77049;52.132;5.426;2024-03-23T13:02:42;100777.22;;;10.18;64.68
75383;BME280;77049;52.132;5.426;2024-03-23T13:05:08;100794.31;;;10.08;64.27
75383;BME280;77049;52.132;5.426;2024-03-23T13:07:39;100790.81;;;9.89;62.65
75383;BME280;77049;52.132;5.426;2024-03-23T13:10:05;100797.41;;;9.85;63.66
75383;BME280;77049;52.132;5.426;2024-03-23T13:12:32;100796.91;;;9.77;63.10
75383;BME280;77049;52.132;5.426;2024-03-23T13:14:59;100783.78;;;9.61;62.03
75383;BME280;77049;52.132;5.426;2024-03-23T13:17:26;100781.06;;;9.52;61.78
75383;BME280;77049;52.132;5.426;2024-03-23T13:19:53;100779.41;;;9.67;63.67
75383;BME280;77049;52.132;5.426;2024-03-23T13:22:19;100786.47;;;9.83;62.97
75383;BME280;77049;52.132;5.426;2024-03-23T13:24:44;100766.56;;;9.87;64.49
75383;BME280;77049;52.132;5.426;2024-03-23T13:27:10;100811.81;;;9.75;61.88
75383;BME280;77049;52.132;5.426;2024-03-23T13:29:36;100828.81;;;9.43;61.45
75383;BME280;77049;52.132;5.426;2024-03-23T13:32:03;100834.59;;;9.03;62.49
75383;BME280;77049;52.132;5.426;2024-03-23T13:34:29;100826.75;;;8.61;64.49
75383;BME280;77049;52.132;5.426;2024-03-23T13:36:55;100799.25;;;8.55;65.80
75383;BME280;77049;52.132;5.426;2024-03-23T13:39:23;100793.50;;;8.57;65.14
75383;BME280;77049;52.132;5.426;2024-03-23T13:41:49;100802.44;;;8.63;65.33
75383;BME280;77049;52.132;5.426;2024-03-23T13:44:15;100799.97;;;8.81;65.77
75383;BME280;77049;52.132;5.426;2024-03-23T13:46:42;100794.78;;;9.03;65.29
75383;BME280;77049;52.132;5.426;2024-03-23T13:49:29;100790.38;;;9.22;63.59
75383;BME280;77049;52.132;5.426;2024-03-23T13:51:57;100786.88;;;9.25;63.45
75383;BME280;77049;52.132;5.426;2024-03-23T13:54:24;100788.28;;;9.17;63.11
75383;BME280;77049;52.132;5.426;2024-03-23T13:56:50;100786.47;;;9.14;63.07
75383;BME280;77049;52.132;5.426;2024-03-23T13:59:16;100787.34;;;9.11;63.52
75383;BME280;77049;52.132;5.426;2024-03-23T14:01:43;100777.88;;;9.10;63.64
75383;BME280;77049;52.132;5.426;2024-03-23T14:04:11;100774.69;;;9.15;63.94
75383;BME280;77049;52.132;5.426;2024-03-23T14:06:37;100768.47;;;9.30;64.89
75383;BME280;77049;52.132;5.426;2024-03-23T14:09:03;100773.44;;;9.41;64.44